createdAt,value
2018-05-23T00:01:49.534Z,26.03
2018-05-23T00:04:16.607Z,23.87
2018-05-23T00:06:42.958Z,25.53
2018-05-23T00:09:09.274Z,22.37
2018-05-23T00:11:36.536Z,23.97
2018-05-23T00:14:03.008Z,25.73
2018-05-23T00:16:30.068Z,25.00
2018-05-23T00:18:56.391Z,25.80
2018-05-23T00:21:23.492Z,21.77
2018-05-23T00:23:49.821Z,22.73
2018-05-23T00:26:16.102Z,20.93
2018-05-23T00:28:42.454Z,22.83
2018-05-23T00:31:09.569Z,23.83
2018-05-23T00:33:35.890Z,22.43
2018-05-23T00:36:02.209Z,21.80
2018-05-23T00:38:28.497Z,20.40
2018-05-23T00:40:55.598Z,20.93
2018-05-23T00:43:22.182Z,19.97
2018-05-23T00:45:49.212Z,18.83
2018-05-23T00:48:15.531Z,20.00
2018-05-23T00:50:41.883Z,19.63
2018-05-23T00:53:09.051Z,19.90
2018-05-23T00:55:36.147Z,19.47
2018-05-23T00:58:02.496Z,22.87
2018-05-23T01:00:28.806Z,22.33
2018-05-23T01:02:55.147Z,22.17
2018-05-23T01:05:21.518Z,22.87
2018-05-23T01:07:49.023Z,20.70
2018-05-23T01:10:15.370Z,21.47
2018-05-23T01:12:41.694Z,21.70
2018-05-23T01:15:08.077Z,20.70
2018-05-23T01:17:34.422Z,21.10
2018-05-23T01:20:01.501Z,20.37
2018-05-23T01:22:27.826Z,23.40
2018-05-23T01:24:54.152Z,24.33
2018-05-23T01:27:20.446Z,25.57
2018-05-23T01:29:47.546Z,23.73
2018-05-23T01:32:13.892Z,26.23
2018-05-23T01:34:40.210Z,23.80
2018-05-23T01:37:06.576Z,23.53
2018-05-23T01:39:34.418Z,21.37
2018-05-23T01:42:00.716Z,23.70
2018-05-23T01:44:27.054Z,23.97
2018-05-23T01:46:53.395Z,21.80
2018-05-23T01:49:26.776Z,22.70
2018-05-23T01:51:53.142Z,25.07
2018-05-23T01:54:20.186Z,24.50
2018-05-23T01:56:46.557Z,23.73
2018-05-23T01:59:12.910Z,23.43
2018-05-23T02:01:39.242Z,21.33
2018-05-23T02:04:05.594Z,22.90
2018-05-23T02:06:31.902Z,23.30
2018-05-23T02:08:58.964Z,22.87
2018-05-23T02:11:25.292Z,24.40
2018-05-23T02:13:51.589Z,23.37
2018-05-23T02:16:17.908Z,25.07
2018-05-23T02:18:45.125Z,24.93
2018-05-23T02:21:11.463Z,27.30
2018-05-23T02:23:37.791Z,25.33
2018-05-23T02:26:04.145Z,22.47
2018-05-23T02:28:30.436Z,24.17
2018-05-23T02:30:56.777Z,24.87
2018-05-23T02:33:23.999Z,25.33
2018-05-23T02:35:50.338Z,26.83
2018-05-23T02:38:16.712Z,29.50
2018-05-23T02:40:43.052Z,27.33
2018-05-23T02:43:09.498Z,29.40
2018-05-23T02:55:20.888Z,28.40
2018-05-23T02:57:47.204Z,31.83
2018-05-23T03:00:13.528Z,30.93
2018-05-23T03:12:24.889Z,31.57
2018-05-23T03:14:51.192Z,32.63
2018-05-23T03:17:17.498Z,34.37
2018-05-23T03:19:44.600Z,31.60
2018-05-23T03:22:11.018Z,32.60
2018-05-23T03:24:37.278Z,31.63
2018-05-23T03:27:03.582Z,32.90
2018-05-23T03:29:30.656Z,29.70
2018-05-23T03:31:57.003Z,32.70
2018-05-23T03:34:23.518Z,29.93
2018-05-23T03:36:50.520Z,30.30
2018-05-23T03:39:16.846Z,29.10
2018-05-23T03:41:43.158Z,30.27
2018-05-23T03:44:09.440Z,32.47
2018-05-23T03:46:36.529Z,32.97
2018-05-23T03:49:02.998Z,32.80
2018-05-23T03:51:29.338Z,32.63
2018-05-23T04:03:53.672Z,33.00
2018-05-23T04:06:29.620Z,37.00
2018-05-23T04:08:56.296Z,37.23
2018-05-23T04:11:22.627Z,36.23
2018-05-23T04:13:49.739Z,35.17
2018-05-23T04:16:18.220Z,37.40
2018-05-23T04:18:45.108Z,40.47
2018-05-23T04:21:11.440Z,41.70
2018-05-23T04:23:38.529Z,36.00
2018-05-23T04:26:04.892Z,43.53
2018-05-23T04:28:32.012Z,42.07
2018-05-23T04:40:38.350Z,44.70
2018-05-23T04:43:04.772Z,55.37
2018-05-23T04:45:31.094Z,49.37
2018-05-23T04:47:57.381Z,53.83
2018-05-23T04:50:23.694Z,52.97
2018-05-23T04:52:49.966Z,50.43
2018-05-23T04:55:16.254Z,50.07
2018-05-23T04:57:42.540Z,48.53
2018-05-23T05:00:09.344Z,49.60
2018-05-23T05:02:35.619Z,48.40
2018-05-23T05:05:01.949Z,50.53
2018-05-23T05:07:28.228Z,47.63
2018-05-23T05:09:54.531Z,47.90
2018-05-23T05:12:20.823Z,46.67
2018-05-23T05:14:47.102Z,51.50
2018-05-23T05:17:13.384Z,48.77
2018-05-23T05:19:39.645Z,50.40
2018-05-23T05:22:05.948Z,49.13
2018-05-23T05:24:32.229Z,47.87
2018-05-23T05:26:58.515Z,47.07
2018-05-23T05:29:24.797Z,48.00
2018-05-23T05:31:51.155Z,48.07
2018-05-23T05:34:17.399Z,47.07
2018-05-23T05:36:43.685Z,47.00
2018-05-23T05:39:09.964Z,46.00
2018-05-23T05:41:36.228Z,44.27
2018-05-23T05:44:02.528Z,47.77
2018-05-23T05:46:28.866Z,50.00
2018-05-23T05:48:55.494Z,46.83
2018-05-23T05:51:21.781Z,46.33
2018-05-23T05:53:48.182Z,46.27
2018-05-23T05:56:14.362Z,48.77
2018-05-23T05:58:41.374Z,45.33
2018-05-23T06:01:07.756Z,46.87
2018-05-23T06:03:34.044Z,48.17
2018-05-23T06:06:00.462Z,42.13
2018-05-23T06:08:26.766Z,41.87
2018-05-23T06:10:53.062Z,39.27
2018-05-23T06:13:19.354Z,39.70
2018-05-23T06:15:45.644Z,38.27
2018-05-23T06:18:11.919Z,36.63
2018-05-23T06:20:38.216Z,36.83
2018-05-23T06:23:04.500Z,38.93
2018-05-23T06:25:32.313Z,39.23
2018-05-23T06:27:58.576Z,41.37
2018-05-23T06:30:24.904Z,41.07
2018-05-23T06:32:51.168Z,41.93
2018-05-23T06:35:17.468Z,40.57
2018-05-23T06:37:43.806Z,40.67
2018-05-23T06:40:10.112Z,42.43
2018-05-23T06:42:36.434Z,40.03
2018-05-23T06:45:02.749Z,41.50
2018-05-23T06:47:29.030Z,40.53
2018-05-23T06:49:56.324Z,38.97
2018-05-23T06:52:23.346Z,35.30
2018-05-23T06:54:50.381Z,36.63
2018-05-23T06:57:16.664Z,34.80
2018-05-23T06:59:42.962Z,33.47
2018-05-23T07:02:09.995Z,32.60
2018-05-23T07:04:36.294Z,29.60
2018-05-23T07:07:02.648Z,23.90
2018-05-23T07:09:29.692Z,20.73
2018-05-23T07:11:56.042Z,17.97
2018-05-23T07:14:23.259Z,18.37
2018-05-23T07:16:52.892Z,18.03
2018-05-23T07:19:19.176Z,16.43
2018-05-23T07:21:45.454Z,17.13
2018-05-23T07:24:11.738Z,16.77
2018-05-23T07:26:38.036Z,16.43
2018-05-23T07:29:04.336Z,17.20
2018-05-23T07:31:30.623Z,17.37
2018-05-23T07:33:56.914Z,16.70
2018-05-23T07:36:23.207Z,17.90
2018-05-23T07:38:49.476Z,17.67
2018-05-23T07:41:16.491Z,18.50
2018-05-23T07:43:42.776Z,19.67
2018-05-23T07:46:09.078Z,18.33
2018-05-23T07:48:35.385Z,17.27
2018-05-23T07:51:01.706Z,17.67
2018-05-23T07:53:28.170Z,19.00
2018-05-23T07:55:54.470Z,18.63
2018-05-23T07:58:20.773Z,19.77
2018-05-23T08:00:47.080Z,23.40
2018-05-23T08:03:14.117Z,21.10
2018-05-23T08:05:41.145Z,20.50
2018-05-23T08:08:07.738Z,20.20
2018-05-23T08:10:34.028Z,20.50
2018-05-23T08:13:00.315Z,20.93
2018-05-23T08:15:26.608Z,21.07
2018-05-23T08:17:53.623Z,20.70
2018-05-23T08:20:19.894Z,21.50
2018-05-23T08:22:46.155Z,21.57
2018-05-23T08:25:12.500Z,21.80
2018-05-23T08:27:38.800Z,22.33
2018-05-23T08:30:05.272Z,22.20
2018-05-23T08:32:31.592Z,22.77
2018-05-23T08:34:57.918Z,23.87
2018-05-23T08:37:25.284Z,24.63
2018-05-23T08:39:51.640Z,25.03
2018-05-23T08:42:18.004Z,26.60
2018-05-23T08:44:44.331Z,29.57
2018-05-23T08:47:11.393Z,29.87
2018-05-23T08:49:37.728Z,32.77
2018-05-23T08:52:04.608Z,34.67
2018-05-23T08:54:30.883Z,40.37
2018-05-23T08:56:57.198Z,39.17
2018-05-23T08:59:24.318Z,40.13
2018-05-23T09:01:51.245Z,38.37
2018-05-23T09:04:17.560Z,37.97
2018-05-23T09:06:43.944Z,40.63
2018-05-23T09:09:11.075Z,41.90
2018-05-23T09:11:37.387Z,44.17
2018-05-23T09:14:03.735Z,44.40
2018-05-23T09:16:30.084Z,42.90
2018-05-23T09:18:57.208Z,46.50
2018-05-23T09:21:23.621Z,49.77
2018-05-23T09:23:49.897Z,47.03
2018-05-23T09:26:16.253Z,47.83
2018-05-23T09:28:42.583Z,46.97
2018-05-23T09:31:09.595Z,51.50
2018-05-23T09:33:35.863Z,49.27
2018-05-23T09:36:02.155Z,49.60
2018-05-23T09:38:28.443Z,52.13
2018-05-23T09:40:54.727Z,51.23
2018-05-23T09:43:21.029Z,51.27
2018-05-23T09:45:47.309Z,50.37
2018-05-23T09:48:14.339Z,51.23
2018-05-23T09:50:40.625Z,49.90
2018-05-23T09:53:06.916Z,51.00
2018-05-23T09:55:33.197Z,50.00
2018-05-23T09:57:59.477Z,49.33
2018-05-23T10:00:26.491Z,50.20
2018-05-23T10:02:52.769Z,50.50
2018-05-23T10:05:19.033Z,50.93
2018-05-23T10:07:45.315Z,51.87
2018-05-23T10:10:12.349Z,51.23
2018-05-23T10:12:38.645Z,49.40
2018-05-23T10:15:04.929Z,48.67
2018-05-23T10:17:31.938Z,45.13
2018-05-23T10:19:58.222Z,45.50
2018-05-23T10:22:24.503Z,43.47
2018-05-23T10:24:50.806Z,42.93
2018-05-23T10:27:17.928Z,43.83
2018-05-23T10:29:44.187Z,41.43
2018-05-23T10:32:10.469Z,39.20
2018-05-23T10:34:37.476Z,39.30
2018-05-23T10:37:03.741Z,41.10
2018-05-23T10:39:30.759Z,38.73
2018-05-23T10:41:57.052Z,41.40
2018-05-23T10:44:23.332Z,38.80
2018-05-23T10:46:49.625Z,42.57
2018-05-23T10:49:15.988Z,38.87
2018-05-23T10:51:42.362Z,39.10
2018-05-23T10:54:08.788Z,40.57
2018-05-23T10:56:35.100Z,39.50
2018-05-23T10:59:02.121Z,36.80
2018-05-23T11:01:28.396Z,37.77
2018-05-23T11:03:54.674Z,34.83
2018-05-23T11:06:20.975Z,33.40
2018-05-23T11:08:47.256Z,33.70
2018-05-23T11:11:14.337Z,35.03
2018-05-23T11:13:41.351Z,32.10
2018-05-23T11:16:07.692Z,34.37
2018-05-23T11:18:34.719Z,34.67
2018-05-23T11:21:00.997Z,34.50
2018-05-23T11:23:27.292Z,29.87
2018-05-23T11:25:53.577Z,25.90
2018-05-23T11:28:19.845Z,25.73
2018-05-23T11:30:46.151Z,23.50
2018-05-23T11:33:12.438Z,23.90
2018-05-23T11:35:38.738Z,22.60
2018-05-23T11:38:05.024Z,23.47
2018-05-23T11:40:31.345Z,22.27
2018-05-23T11:42:57.621Z,22.73
2018-05-23T11:45:23.916Z,19.63
2018-05-23T11:47:50.199Z,17.57
2018-05-23T11:50:16.478Z,20.37
2018-05-23T11:52:42.759Z,19.50
2018-05-23T11:55:09.128Z,20.87
2018-05-23T11:57:35.396Z,20.77
2018-05-23T12:00:01.713Z,22.43
2018-05-23T12:02:28.005Z,22.60
2018-05-23T12:04:54.289Z,20.20
2018-05-23T12:07:20.915Z,22.17
2018-05-23T12:09:47.211Z,19.60
2018-05-23T12:12:13.513Z,21.63
2018-05-23T12:14:40.551Z,20.30
2018-05-23T12:17:06.841Z,19.60
2018-05-23T12:19:33.214Z,19.67
2018-05-23T12:21:59.449Z,16.77
2018-05-23T12:24:27.229Z,17.97
2018-05-23T12:26:55.151Z,17.87
2018-05-23T12:29:21.531Z,18.30
2018-05-23T12:31:47.851Z,19.00
2018-05-23T12:34:14.946Z,20.10
2018-05-23T12:36:41.497Z,19.53
2018-05-23T12:39:07.843Z,19.53
2018-05-23T12:41:34.135Z,16.77
2018-05-23T12:44:02.279Z,14.80
2018-05-23T12:56:08.779Z,13.90
2018-05-23T12:58:36.116Z,12.40
2018-05-23T13:13:58.043Z,10.67
2018-05-23T13:16:24.361Z,10.17
2018-05-23T13:18:50.675Z,8.63
2018-05-23T13:21:17.060Z,12.47
2018-05-23T13:23:44.286Z,12.57
2018-05-23T13:26:10.681Z,13.37
2018-05-23T13:28:36.987Z,14.17
2018-05-23T13:31:04.016Z,12.97
2018-05-23T13:33:31.047Z,11.33
2018-05-23T13:35:57.360Z,12.07
2018-05-23T13:38:23.664Z,12.37
2018-05-23T13:40:49.955Z,12.03
2018-05-23T13:43:16.272Z,12.10
2018-05-23T13:45:42.570Z,11.90
2018-05-23T13:48:08.850Z,15.83
2018-05-23T13:50:35.161Z,11.00
2018-05-23T13:53:01.463Z,12.23
2018-05-23T13:55:27.755Z,10.67
2018-05-23T13:57:54.785Z,11.97
2018-05-23T14:00:21.084Z,10.70
2018-05-23T14:02:47.379Z,10.50
2018-05-23T14:05:13.661Z,10.67
2018-05-23T14:07:39.957Z,11.27
2018-05-23T14:10:06.255Z,11.23
2018-05-23T14:12:32.556Z,12.40
2018-05-23T14:14:58.884Z,13.27
2018-05-23T14:17:25.200Z,12.17
2018-05-23T14:19:51.491Z,13.43
2018-05-23T14:22:18.531Z,13.63
2018-05-23T14:24:45.541Z,13.67
2018-05-23T14:27:12.864Z,14.53
2018-05-23T14:29:39.157Z,15.93
2018-05-23T14:32:05.455Z,15.47
2018-05-23T14:34:31.758Z,17.00
2018-05-23T14:36:58.039Z,17.27
2018-05-23T14:39:24.348Z,16.57
2018-05-23T14:41:50.635Z,16.67
2018-05-23T14:44:16.906Z,15.60
2018-05-23T14:46:46.275Z,14.93
2018-05-23T14:49:12.579Z,15.23
2018-05-23T14:51:39.595Z,15.37
2018-05-23T14:54:05.891Z,15.23
2018-05-23T14:56:32.301Z,17.03
2018-05-23T14:58:58.557Z,17.13
2018-05-23T15:01:24.815Z,15.70
2018-05-23T15:03:51.115Z,18.40
2018-05-23T15:06:17.401Z,17.70
2018-05-23T15:08:44.411Z,16.33
2018-05-23T15:11:10.769Z,16.50
2018-05-23T15:13:37.843Z,23.20
2018-05-23T15:16:04.193Z,19.53
2018-05-23T15:18:30.511Z,21.03
2018-05-23T15:20:56.779Z,22.43
2018-05-23T15:23:23.087Z,23.77
2018-05-23T15:25:49.381Z,22.73
2018-05-23T15:28:15.656Z,23.00
2018-05-23T15:30:41.937Z,23.90
2018-05-23T15:33:08.264Z,23.37
2018-05-23T15:35:34.547Z,23.30
2018-05-23T15:38:00.839Z,27.13
2018-05-23T15:40:27.137Z,23.93
2018-05-23T15:42:53.418Z,26.73
2018-05-23T15:45:19.731Z,25.47
2018-05-23T15:47:46.791Z,26.07
2018-05-23T15:50:13.818Z,28.57
2018-05-23T15:52:40.104Z,29.67
2018-05-23T15:55:06.414Z,28.10
2018-05-23T15:57:32.968Z,28.93
2018-05-23T15:59:59.335Z,27.73
2018-05-23T16:02:26.524Z,26.90
2018-05-23T16:04:52.902Z,26.20
2018-05-23T16:07:19.197Z,27.57
2018-05-23T16:09:45.523Z,28.23
2018-05-23T16:12:11.799Z,27.27
2018-05-23T16:14:38.121Z,28.20
2018-05-23T16:17:04.425Z,27.80
2018-05-23T16:19:30.721Z,26.67
2018-05-23T16:21:57.737Z,27.57
2018-05-23T16:24:24.015Z,27.23
2018-05-23T16:26:50.301Z,27.07
2018-05-23T16:29:16.597Z,28.63
2018-05-23T16:31:42.914Z,26.73
2018-05-23T16:34:09.190Z,26.30
2018-05-23T16:36:35.463Z,26.23
2018-05-23T16:39:01.797Z,27.27
2018-05-23T16:41:28.085Z,25.60
2018-05-23T16:43:54.374Z,30.47
2018-05-23T16:46:20.649Z,30.07
2018-05-23T16:48:46.935Z,30.40
2018-05-23T16:51:13.252Z,31.47
2018-05-23T16:53:39.549Z,30.73
2018-05-23T16:56:05.831Z,33.43
2018-05-23T16:58:32.199Z,34.63
2018-05-23T17:00:58.507Z,34.63
2018-05-23T17:03:25.529Z,34.37
2018-05-23T17:05:51.826Z,34.80
2018-05-23T17:08:18.866Z,37.20
2018-05-23T17:10:45.891Z,37.67
2018-05-23T17:13:12.192Z,36.97
2018-05-23T17:15:38.488Z,37.27
2018-05-23T17:18:04.815Z,38.80
2018-05-23T17:20:31.851Z,38.43
2018-05-23T17:22:58.149Z,43.17
2018-05-23T17:25:24.435Z,43.63
2018-05-23T17:27:51.461Z,40.43
2018-05-23T17:30:17.769Z,46.33
2018-05-23T17:32:44.055Z,43.27
2018-05-23T17:35:11.090Z,42.80
2018-05-23T17:37:38.140Z,43.87
2018-05-23T17:40:05.171Z,42.17
2018-05-23T17:42:31.461Z,44.30
2018-05-23T17:44:57.746Z,43.20
2018-05-23T17:47:24.030Z,41.10
2018-05-23T17:49:50.311Z,42.40
2018-05-23T17:52:17.353Z,43.83
2018-05-23T17:54:44.359Z,43.07
2018-05-23T17:57:11.384Z,43.00
2018-05-23T17:59:37.678Z,42.83
2018-05-23T18:02:04.723Z,44.10
2018-05-23T18:04:32.693Z,43.27
2018-05-23T18:06:59.119Z,44.93
2018-05-23T18:09:25.407Z,43.63
2018-05-23T18:11:52.715Z,42.67
2018-05-23T18:14:19.738Z,42.63
2018-05-23T18:16:46.105Z,44.60
2018-05-23T18:19:12.377Z,39.90
2018-05-23T18:21:39.230Z,37.97
2018-05-23T18:24:05.600Z,38.77
2018-05-23T18:26:33.089Z,35.20
2018-05-23T18:28:59.424Z,38.00
2018-05-23T18:31:25.776Z,34.27
2018-05-23T18:33:53.172Z,34.43
2018-05-23T18:36:20.235Z,33.57
2018-05-23T18:38:47.658Z,33.43
2018-05-23T18:41:14.724Z,32.93
2018-05-23T18:43:42.646Z,32.80
2018-05-23T18:46:10.357Z,31.30
2018-05-23T18:48:36.776Z,29.07
2018-05-23T18:51:03.170Z,30.20
2018-05-23T18:53:29.555Z,28.77
2018-05-23T18:55:56.612Z,31.63
2018-05-23T18:58:22.976Z,30.53
2018-05-23T19:00:49.301Z,29.97
2018-05-23T19:03:15.669Z,30.03
2018-05-23T19:05:42.011Z,32.37
2018-05-23T19:08:08.406Z,32.73
2018-05-23T19:10:34.713Z,31.20
2018-05-23T19:13:01.055Z,31.30
2018-05-23T19:15:27.455Z,31.93
2018-05-23T19:17:54.517Z,31.13
2018-05-23T19:20:21.799Z,31.60
2018-05-23T19:22:48.158Z,34.17
2018-05-23T19:25:15.488Z,33.10
2018-05-23T19:27:42.745Z,33.40
2018-05-23T19:30:10.825Z,32.10
2018-05-23T19:32:37.157Z,32.40
2018-05-23T19:35:03.474Z,31.97
2018-05-23T19:37:29.768Z,36.10
2018-05-23T19:39:56.972Z,35.17
2018-05-23T19:42:23.404Z,34.83
2018-05-23T19:44:49.715Z,34.27
2018-05-23T19:47:17.119Z,33.90
2018-05-23T19:49:43.418Z,32.60
2018-05-23T19:52:09.733Z,32.93
2018-05-23T19:54:36.031Z,29.63
2018-05-23T19:57:04.147Z,30.20
2018-05-23T19:59:30.469Z,29.60
2018-05-23T20:01:56.881Z,27.90
2018-05-23T20:04:23.225Z,28.87
2018-05-23T20:06:49.565Z,27.47
2018-05-23T20:09:15.877Z,28.07
2018-05-23T20:11:42.154Z,27.57
2018-05-23T20:14:08.526Z,27.03
2018-05-23T20:16:34.743Z,28.90
2018-05-23T20:19:01.043Z,27.97
2018-05-23T20:21:27.347Z,27.43
2018-05-23T20:23:53.623Z,28.33
2018-05-23T20:26:19.940Z,30.30
2018-05-23T20:28:46.241Z,30.20
2018-05-23T20:31:12.547Z,28.10
2018-05-23T20:33:38.829Z,26.37
2018-05-23T20:36:05.167Z,20.77
2018-05-23T20:38:31.455Z,22.93
2018-05-23T20:40:57.788Z,24.20
2018-05-23T20:43:24.103Z,22.80
2018-05-23T20:45:50.433Z,22.80
2018-05-23T20:48:18.035Z,20.73
2018-05-23T20:50:44.420Z,18.93
2018-05-23T20:53:10.745Z,18.50
2018-05-23T20:55:37.828Z,18.33
2018-05-23T20:58:04.230Z,19.77
2018-05-23T21:00:31.406Z,17.77
2018-05-23T21:02:58.625Z,18.77
2018-05-23T21:05:25.155Z,16.90
2018-05-23T21:07:51.333Z,17.47
2018-05-23T21:10:18.669Z,16.00
2018-05-23T21:12:45.765Z,14.97
2018-05-23T21:15:13.016Z,14.77
2018-05-23T21:17:39.351Z,18.57
2018-05-23T21:20:06.411Z,15.17
2018-05-23T21:22:33.564Z,15.30
2018-05-23T21:24:59.963Z,15.20
2018-05-23T21:27:26.234Z,13.63
2018-05-23T21:29:53.335Z,13.93
2018-05-23T21:32:19.710Z,13.03
2018-05-23T21:34:46.004Z,13.37
2018-05-23T21:37:12.310Z,14.03
2018-05-23T21:39:38.633Z,13.20
2018-05-23T21:42:05.255Z,13.13
2018-05-23T21:44:31.610Z,12.97
2018-05-23T21:46:57.945Z,15.10
2018-05-23T21:49:25.397Z,11.93
2018-05-23T21:51:51.682Z,12.23
2018-05-23T21:54:18.040Z,10.77
2018-05-23T21:56:45.272Z,10.77
2018-05-23T21:59:11.648Z,11.43
2018-05-23T22:01:37.985Z,10.87
2018-05-23T22:04:04.955Z,11.00
2018-05-23T22:06:33.429Z,10.80
2018-05-23T22:08:59.764Z,10.53
2018-05-23T22:11:26.093Z,14.70
2018-05-23T22:13:53.119Z,17.37
2018-05-23T22:16:19.506Z,16.90
2018-05-23T22:18:45.866Z,16.57
2018-05-23T22:21:12.149Z,15.73
2018-05-23T22:23:38.483Z,14.77
2018-05-23T22:26:04.798Z,13.20
2018-05-23T22:28:31.907Z,13.50
2018-05-23T22:30:58.258Z,10.43
2018-05-23T22:33:24.599Z,8.83
2018-05-23T22:35:51.736Z,11.00
2018-05-23T22:38:18.806Z,12.87
2018-05-23T22:40:45.159Z,9.90
2018-05-23T22:43:11.532Z,10.13
2018-05-23T22:45:37.913Z,10.57
2018-05-23T22:48:05.101Z,9.80
2018-05-23T22:50:31.476Z,11.43
2018-05-23T23:02:43.747Z,10.50
2018-05-23T23:05:10.049Z,9.57
2018-05-23T23:07:37.584Z,10.90
2018-05-23T23:10:03.928Z,11.53
2018-05-23T23:12:30.959Z,10.87
2018-05-23T23:14:57.291Z,10.77
2018-05-23T23:17:24.122Z,11.33
2018-05-23T23:19:50.473Z,12.93
2018-05-23T23:22:29.635Z,13.27
2018-05-23T23:24:55.995Z,13.03
2018-05-23T23:27:22.324Z,11.77
2018-05-23T23:29:48.637Z,11.70
2018-05-23T23:32:14.983Z,12.30
2018-05-23T23:34:41.313Z,11.90
2018-05-23T23:37:07.697Z,13.77
2018-05-23T23:39:34.731Z,12.60
2018-05-23T23:42:01.799Z,12.07
2018-05-23T23:44:28.184Z,12.17
2018-05-23T23:46:56.643Z,11.60
2018-05-23T23:49:22.987Z,12.93
2018-05-23T23:51:49.359Z,13.40
2018-05-23T23:54:15.679Z,12.87
2018-05-23T23:56:42.046Z,13.67
2018-05-23T23:59:08.428Z,12.90
